createdAt,value
2018-03-12T00:00:50.696Z,7.85
2018-03-12T00:01:59.528Z,7.93
2018-03-12T00:03:08.360Z,7.92
2018-03-12T00:04:17.194Z,7.85
2018-03-12T00:05:26.028Z,7.87
2018-03-12T00:06:35.285Z,7.85
2018-03-12T00:07:44.400Z,7.85
2018-03-12T00:08:53.232Z,7.82
2018-03-12T00:10:02.066Z,7.71
2018-03-12T00:11:11.171Z,7.64
2018-03-12T00:12:20.154Z,7.71
2018-03-12T00:13:28.987Z,7.69
2018-03-12T00:14:37.817Z,7.64
2018-03-12T00:15:46.929Z,7.67
2018-03-12T00:16:55.759Z,7.71
2018-03-12T00:18:04.647Z,7.61
2018-03-12T00:19:13.479Z,7.58
2018-03-12T00:20:22.312Z,7.63
2018-03-12T00:21:31.148Z,7.57
2018-03-12T00:22:39.980Z,7.53
2018-03-12T00:23:49.062Z,7.6
2018-03-12T00:24:58.169Z,7.57
2018-03-12T00:26:07.001Z,7.49
2018-03-12T00:27:15.833Z,7.57
2018-03-12T00:28:24.665Z,7.5
2018-03-12T00:29:33.798Z,7.45
2018-03-12T00:30:42.630Z,7.42
2018-03-12T00:31:51.465Z,7.48
2018-03-12T00:33:00.293Z,7.53
2018-03-12T00:34:09.402Z,7.5
2018-03-12T00:35:18.538Z,7.53
2018-03-12T00:36:27.367Z,7.48
2018-03-12T00:37:36.197Z,7.55
2018-03-12T00:38:45.030Z,7.55
2018-03-12T00:39:53.860Z,7.45
2018-03-12T00:41:02.794Z,7.46
2018-03-12T00:42:11.628Z,7.5
2018-03-12T00:43:20.459Z,7.5
2018-03-12T00:44:29.288Z,7.46
2018-03-12T00:45:38.395Z,7.4
2018-03-12T00:46:47.382Z,7.3
2018-03-12T00:47:56.216Z,7.35
2018-03-12T00:49:05.048Z,7.31
2018-03-12T00:50:13.877Z,7.3
2018-03-12T00:51:22.985Z,7.39
2018-03-12T00:52:32.224Z,7.32
2018-03-12T00:53:41.052Z,7.3
2018-03-12T00:54:49.884Z,7.34
2018-03-12T00:55:58.717Z,7.3
2018-03-12T00:57:07.822Z,7.32
2018-03-12T00:58:16.654Z,7.34
2018-03-12T00:59:25.766Z,7.37
2018-03-12T01:00:34.866Z,7.24
2018-03-12T01:01:43.699Z,7.3
2018-03-12T01:02:52.809Z,7.34
2018-03-12T01:04:02.024Z,7.34
2018-03-12T01:05:10.855Z,7.3
2018-03-12T01:06:19.687Z,7.37
2018-03-12T01:07:28.520Z,7.37
2018-03-12T01:08:37.349Z,7.42
2018-03-12T01:09:46.185Z,7.5
2018-03-12T01:10:55.012Z,7.45
2018-03-12T01:12:03.846Z,7.55
2018-03-12T01:13:12.678Z,7.5
2018-03-12T01:14:21.507Z,7.52
2018-03-12T01:15:30.859Z,7.58
2018-03-12T01:16:39.691Z,7.53
2018-03-12T01:17:48.521Z,7.57
2018-03-12T01:18:57.353Z,7.63
2018-03-12T01:20:06.188Z,7.53
2018-03-12T01:21:15.168Z,7.63
2018-03-12T01:22:24.000Z,7.6
2018-03-12T01:23:32.830Z,7.6
2018-03-12T01:24:41.662Z,7.61
2018-03-12T01:25:50.494Z,7.6
2018-03-12T01:26:59.378Z,7.61
2018-03-12T01:28:08.214Z,7.55
2018-03-12T01:29:17.325Z,7.58
2018-03-12T01:30:26.714Z,7.63
2018-03-12T01:31:35.544Z,7.53
2018-03-12T01:32:44.483Z,7.53
2018-03-12T01:33:53.597Z,7.52
2018-03-12T01:35:02.451Z,7.53
2018-03-12T01:36:11.537Z,7.45
2018-03-12T01:37:20.372Z,7.6
2018-03-12T01:38:29.203Z,7.61
2018-03-12T01:39:38.036Z,7.55
2018-03-12T01:40:46.869Z,7.52
2018-03-12T01:41:55.704Z,7.61
2018-03-12T01:43:04.534Z,7.57
2018-03-12T01:44:13.953Z,7.49
2018-03-12T01:45:22.785Z,7.55
2018-03-12T01:46:31.616Z,7.52
2018-03-12T01:47:40.448Z,7.55
2018-03-12T01:48:50.479Z,7.53
2018-03-12T01:49:59.512Z,7.46
2018-03-12T01:51:08.343Z,7.49
2018-03-12T01:52:17.175Z,7.5
2018-03-12T01:53:26.007Z,7.5
2018-03-12T01:54:34.844Z,7.46
2018-03-12T01:55:43.870Z,7.48
2018-03-12T01:56:52.973Z,7.34
2018-03-12T01:58:01.819Z,7.43
2018-03-12T01:59:10.641Z,7.32
2018-03-12T02:00:19.747Z,7.48
2018-03-12T02:01:28.781Z,7.45
2018-03-12T02:02:37.613Z,7.46
2018-03-12T02:03:46.444Z,7.31
2018-03-12T02:04:55.275Z,7.31
2018-03-12T02:06:04.108Z,7.4
2018-03-12T02:07:12.987Z,7.37
2018-03-12T02:08:21.817Z,7.35
2018-03-12T02:09:30.651Z,7.31
2018-03-12T02:10:39.760Z,7.34
2018-03-12T02:11:48.590Z,7.31
2018-03-12T02:12:57.721Z,7.34
2018-03-12T02:14:06.553Z,7.17
2018-03-12T02:15:15.389Z,7.17
2018-03-12T02:16:24.218Z,7.21
2018-03-12T02:17:33.600Z,7.2
2018-03-12T02:18:43.005Z,7.21
2018-03-12T02:19:52.110Z,7.2
2018-03-12T02:21:00.940Z,7.23
2018-03-12T02:22:09.774Z,7.21
2018-03-12T02:23:18.604Z,7.2
2018-03-12T02:24:27.583Z,7.24
2018-03-12T02:25:36.413Z,7.23
2018-03-12T02:26:45.244Z,7.27
2018-03-12T02:27:54.079Z,7.12
2018-03-12T02:29:03.183Z,7.05
2018-03-12T02:30:12.448Z,7.15
2018-03-12T02:31:21.280Z,7.17
2018-03-12T02:32:30.117Z,7.15
2018-03-12T02:33:38.947Z,7.16
2018-03-12T02:34:47.778Z,7.17
2018-03-12T02:35:56.709Z,7.21
2018-03-12T02:37:05.817Z,7.12
2018-03-12T02:38:14.649Z,7.09
2018-03-12T02:39:23.482Z,7.21
2018-03-12T02:40:32.874Z,7.21
2018-03-12T02:41:42.031Z,7.27
2018-03-12T02:42:50.864Z,7.12
2018-03-12T02:43:59.697Z,7.2
2018-03-12T02:45:08.530Z,7.17
2018-03-12T02:46:17.363Z,7.2
2018-03-12T02:47:26.345Z,7.13
2018-03-12T02:48:35.178Z,7.09
2018-03-12T02:49:44.011Z,7.13
2018-03-12T02:50:53.121Z,7.12
2018-03-12T02:52:01.955Z,7.13
2018-03-12T02:53:10.839Z,7.15
2018-03-12T02:54:19.954Z,7.16
2018-03-12T02:55:28.783Z,7.1
2018-03-12T02:56:37.615Z,7.07
2018-03-12T02:57:46.458Z,7.15
2018-03-12T02:58:55.338Z,7.09
2018-03-12T03:00:04.184Z,7.12
2018-03-12T03:01:13.015Z,7.03
2018-03-12T03:02:21.845Z,7.06
2018-03-12T03:03:30.677Z,7.07
2018-03-12T03:04:39.809Z,7.07
2018-03-12T03:05:48.641Z,7.09
2018-03-12T03:06:57.473Z,7.06
2018-03-12T03:08:06.304Z,6.98
2018-03-12T03:09:15.411Z,7.03
2018-03-12T03:10:24.244Z,7.05
2018-03-12T03:11:33.080Z,6.97
2018-03-12T03:12:41.910Z,7.05
2018-03-12T03:13:50.740Z,7.09
2018-03-12T03:14:59.572Z,7.09
2018-03-12T03:16:08.685Z,7.06
2018-03-12T03:17:17.516Z,7.09
2018-03-12T03:18:26.349Z,7.05
2018-03-12T03:19:35.181Z,7.06
2018-03-12T03:20:44.163Z,7.02
2018-03-12T03:21:53.242Z,7.03
2018-03-12T03:23:02.077Z,6.91
2018-03-12T03:24:11.186Z,6.94
2018-03-12T03:25:20.016Z,6.99
2018-03-12T03:26:28.848Z,6.99
2018-03-12T03:27:38.020Z,7.05
2018-03-12T03:28:46.851Z,6.99
2018-03-12T03:29:55.680Z,6.98
2018-03-12T03:31:04.514Z,7.07
2018-03-12T03:32:13.352Z,7.13
2018-03-12T03:33:22.481Z,7.09
2018-03-12T03:34:31.323Z,7.13
2018-03-12T03:35:40.431Z,7.2
2018-03-12T03:36:49.543Z,7.23
2018-03-12T03:37:58.649Z,7.16
2018-03-12T03:39:07.480Z,7.25
2018-03-12T03:40:16.313Z,7.16
2018-03-12T03:41:25.144Z,7.16
2018-03-12T03:42:33.975Z,7.25
2018-03-12T03:43:42.809Z,7.16
2018-03-12T03:44:51.741Z,7.24
2018-03-12T03:46:00.572Z,7.17
2018-03-12T03:47:09.404Z,7.21
2018-03-12T03:48:18.236Z,7.24
2018-03-12T03:49:27.337Z,7.12
2018-03-12T03:50:36.319Z,7.13
2018-03-12T03:51:45.427Z,7.03
2018-03-12T03:52:54.257Z,7.09
2018-03-12T03:54:03.090Z,7.09
2018-03-12T03:55:11.920Z,6.99
2018-03-12T03:56:21.051Z,6.98
2018-03-12T03:57:29.881Z,7.05
2018-03-12T03:58:38.998Z,7.07
2018-03-12T03:59:47.824Z,7.02
2018-03-12T04:00:56.656Z,6.98
2018-03-12T04:02:05.639Z,6.99
2018-03-12T04:03:14.471Z,7.05
2018-03-12T04:04:23.304Z,7.03
2018-03-12T04:05:32.143Z,6.89
2018-03-12T04:06:40.978Z,6.92
2018-03-12T04:07:50.334Z,6.89
2018-03-12T04:08:59.169Z,6.99
2018-03-12T04:10:08.286Z,6.92
2018-03-12T04:11:17.394Z,6.92
2018-03-12T04:12:26.223Z,6.89
2018-03-12T04:13:35.153Z,6.91
2018-03-12T04:14:43.983Z,6.88
2018-03-12T04:15:52.816Z,6.8
2018-03-12T04:17:01.692Z,6.91
2018-03-12T04:18:10.479Z,6.88
2018-03-12T04:19:19.311Z,6.81
2018-03-12T04:20:28.144Z,6.87
2018-03-12T04:21:36.973Z,6.92
2018-03-12T04:22:45.803Z,6.91
2018-03-12T04:23:54.634Z,6.88
2018-03-12T04:25:03.792Z,6.85
2018-03-12T04:26:12.623Z,6.85
2018-03-12T04:27:21.456Z,6.76
2018-03-12T04:28:30.287Z,6.84
2018-03-12T04:29:39.119Z,6.81
2018-03-12T04:30:48.005Z,6.8
2018-03-12T04:31:57.114Z,6.7
2018-03-12T04:33:05.945Z,6.77
2018-03-12T04:34:14.783Z,6.8
2018-03-12T04:35:23.606Z,6.67
2018-03-12T04:36:32.489Z,6.71
2018-03-12T04:37:41.320Z,6.66
2018-03-12T04:38:50.147Z,6.73
2018-03-12T04:39:58.979Z,6.67
2018-03-12T04:41:07.812Z,6.76
2018-03-12T04:42:16.643Z,6.73
2018-03-12T04:43:25.476Z,6.74
2018-03-12T04:44:34.309Z,6.71
2018-03-12T04:45:43.138Z,6.77
2018-03-12T04:46:52.247Z,6.7
2018-03-12T04:48:01.080Z,6.79
2018-03-12T04:49:09.912Z,6.79
2018-03-12T04:50:18.744Z,6.74
2018-03-12T04:51:27.860Z,6.84
2018-03-12T04:52:36.690Z,6.94
2018-03-12T04:53:45.822Z,6.87
2018-03-12T04:54:54.704Z,6.92
2018-03-12T04:56:03.535Z,6.81
2018-03-12T04:57:12.366Z,6.89
2018-03-12T04:58:21.198Z,6.85
2018-03-12T04:59:30.130Z,6.84
2018-03-12T05:00:39.240Z,6.85
2018-03-12T05:01:48.346Z,6.87
2018-03-12T05:02:57.176Z,6.84
2018-03-12T05:04:06.007Z,6.74
2018-03-12T05:05:14.940Z,6.76
2018-03-12T05:06:23.770Z,6.77
2018-03-12T05:07:33.159Z,6.69
2018-03-12T05:08:41.990Z,6.7
2018-03-12T05:09:51.098Z,6.64
2018-03-12T05:11:00.033Z,6.7
2018-03-12T05:12:08.865Z,6.71
2018-03-12T05:13:17.697Z,6.73
2018-03-12T05:14:26.527Z,6.69
2018-03-12T05:15:35.361Z,6.69
2018-03-12T05:16:44.773Z,6.64
2018-03-12T05:17:53.607Z,6.62
2018-03-12T05:19:02.438Z,6.66
2018-03-12T05:20:11.268Z,6.61
2018-03-12T05:21:20.100Z,6.62
2018-03-12T05:22:29.232Z,6.59
2018-03-12T05:23:38.068Z,6.61
2018-03-12T05:24:47.171Z,6.61
2018-03-12T05:25:56.004Z,6.7
2018-03-12T05:27:04.839Z,6.64
2018-03-12T05:28:13.714Z,6.64
2018-03-12T05:29:22.543Z,6.66
2018-03-12T05:30:31.373Z,6.71
2018-03-12T05:31:40.206Z,6.71
2018-03-12T05:32:49.037Z,6.76
2018-03-12T05:33:58.168Z,6.69
2018-03-12T05:35:06.998Z,6.67
2018-03-12T05:36:15.828Z,6.76
2018-03-12T05:37:24.664Z,6.77
2018-03-12T05:38:33.494Z,6.76
2018-03-12T05:39:42.751Z,6.79
2018-03-12T05:40:51.582Z,6.74
2018-03-12T05:42:00.413Z,6.81
2018-03-12T05:43:09.247Z,6.76
2018-03-12T05:44:18.074Z,6.7
2018-03-12T05:45:27.058Z,6.76
2018-03-12T05:46:35.888Z,6.79
2018-03-12T05:47:45.002Z,6.81
2018-03-12T05:48:53.830Z,6.79
2018-03-12T05:50:02.663Z,6.8
2018-03-12T05:51:11.599Z,6.79
2018-03-12T05:52:20.435Z,6.77
2018-03-12T05:53:29.266Z,6.76
2018-03-12T05:54:38.098Z,6.8
2018-03-12T05:55:46.930Z,6.77
2018-03-12T05:56:55.762Z,6.71
2018-03-12T05:58:04.870Z,6.74
2018-03-12T05:59:13.975Z,6.76
2018-03-12T06:00:22.807Z,6.8
2018-03-12T06:01:31.637Z,6.74
2018-03-12T06:02:40.746Z,6.8
2018-03-12T06:03:49.578Z,6.79
2018-03-12T06:04:58.486Z,6.79
2018-03-12T06:06:07.322Z,6.77
2018-03-12T06:07:16.152Z,6.8
2018-03-12T06:08:24.996Z,6.73
2018-03-12T06:09:33.825Z,6.79
2018-03-12T06:10:42.656Z,6.79
2018-03-12T06:11:51.484Z,6.8
2018-03-12T06:13:00.317Z,6.71
2018-03-12T06:14:09.153Z,6.8
2018-03-12T06:15:17.981Z,6.81
2018-03-12T06:16:26.816Z,6.85
2018-03-12T06:17:35.649Z,6.87
2018-03-12T06:18:44.482Z,6.88
2018-03-12T06:19:53.587Z,6.91
2018-03-12T06:21:02.419Z,6.84
2018-03-12T06:22:11.402Z,6.85
2018-03-12T06:23:20.234Z,6.92
2018-03-12T06:24:29.341Z,6.94
2018-03-12T06:25:38.174Z,6.97
2018-03-12T06:26:47.005Z,6.81
2018-03-12T06:27:56.141Z,6.89
2018-03-12T06:29:04.971Z,6.91
2018-03-12T06:30:13.837Z,6.98
2018-03-12T06:31:22.635Z,6.89
2018-03-12T06:32:31.744Z,6.98
2018-03-12T06:33:40.577Z,6.98
2018-03-12T06:34:49.412Z,6.92
2018-03-12T06:35:58.243Z,6.91
2018-03-12T06:37:07.078Z,6.95
2018-03-12T06:38:15.909Z,6.92
2018-03-12T06:39:25.044Z,6.94
2018-03-12T06:40:33.876Z,6.88
2018-03-12T06:41:42.985Z,6.92
2018-03-12T06:42:51.871Z,6.91
2018-03-12T06:44:00.647Z,6.94
2018-03-12T06:45:09.628Z,6.88
2018-03-12T06:46:18.459Z,6.87
2018-03-12T06:47:27.293Z,6.95
2018-03-12T06:48:36.129Z,6.92
2018-03-12T06:49:44.959Z,6.91
2018-03-12T06:50:53.847Z,6.98
2018-03-12T06:52:02.693Z,7.05
2018-03-12T06:53:12.074Z,6.99
2018-03-12T06:54:20.905Z,6.98
2018-03-12T06:55:29.738Z,6.95
2018-03-12T06:56:38.670Z,7.05
2018-03-12T06:57:47.500Z,6.97
2018-03-12T06:58:56.334Z,7.07
2018-03-12T07:00:05.215Z,7.07
2018-03-12T07:01:14.002Z,7.02
2018-03-12T07:02:23.134Z,7.07
2018-03-12T07:03:31.967Z,7.1
2018-03-12T07:04:40.796Z,7.12
2018-03-12T07:05:49.630Z,7.12
2018-03-12T07:06:58.463Z,7.24
2018-03-12T07:08:07.726Z,7.15
2018-03-12T07:09:16.556Z,7.25
2018-03-12T07:10:25.391Z,7.1
2018-03-12T07:11:34.220Z,7.15
2018-03-12T07:12:43.052Z,7.21
2018-03-12T07:13:51.885Z,7.21
2018-03-12T07:15:00.994Z,7.28
2018-03-12T07:16:09.828Z,7.27
2018-03-12T07:17:18.700Z,7.31
2018-03-12T07:18:27.492Z,7.45
2018-03-12T07:19:36.475Z,7.46
2018-03-12T07:20:45.310Z,7.5
2018-03-12T07:21:54.157Z,7.46
2018-03-12T07:23:02.989Z,7.43
2018-03-12T07:24:11.821Z,7.55
2018-03-12T07:25:21.299Z,7.6
2018-03-12T07:26:30.131Z,7.57
2018-03-12T07:27:38.962Z,7.5
2018-03-12T07:28:47.795Z,7.52
2018-03-12T07:29:56.629Z,7.6
2018-03-12T07:31:05.613Z,7.57
2018-03-12T07:32:14.446Z,7.6
2018-03-12T07:33:23.280Z,7.6
2018-03-12T07:34:32.113Z,7.68
2018-03-12T07:35:40.947Z,7.68
2018-03-12T07:36:49.880Z,7.72
2018-03-12T07:37:58.718Z,7.77
2018-03-12T07:39:07.551Z,7.79
2018-03-12T07:40:16.384Z,7.82
2018-03-12T07:41:25.217Z,7.85
2018-03-12T07:42:34.575Z,7.87
2018-03-12T07:43:43.416Z,7.85
2018-03-12T07:44:52.252Z,7.83
2018-03-12T07:46:01.087Z,8.01
2018-03-12T07:47:09.919Z,7.98
2018-03-12T07:48:19.208Z,7.98
2018-03-12T07:49:28.038Z,7.98
2018-03-12T07:50:36.872Z,8.04
2018-03-12T07:51:45.704Z,8.07
2018-03-12T07:52:54.537Z,8.07
2018-03-12T07:54:03.422Z,8.08
2018-03-12T07:55:12.253Z,8.16
2018-03-12T07:56:21.095Z,8.22
2018-03-12T07:57:29.922Z,8.29
2018-03-12T07:58:38.755Z,8.28
2018-03-12T07:59:47.962Z,8.26
2018-03-12T08:00:56.797Z,8.33
2018-03-12T08:02:05.629Z,8.33
2018-03-12T08:03:14.464Z,8.4
2018-03-12T08:04:23.297Z,8.38
2018-03-12T08:05:32.181Z,8.38
2018-03-12T08:06:41.014Z,8.38
2018-03-12T08:07:49.859Z,8.38
2018-03-12T08:08:58.693Z,8.45
2018-03-12T08:10:07.528Z,8.47
2018-03-12T08:11:16.941Z,8.62
2018-03-12T08:12:25.776Z,8.59
2018-03-12T08:13:34.609Z,8.58
2018-03-12T08:14:43.444Z,8.58
2018-03-12T08:15:52.282Z,8.63
2018-03-12T08:17:01.516Z,8.63
2018-03-12T08:18:10.349Z,8.74
2018-03-12T08:19:19.183Z,8.65
2018-03-12T08:20:28.018Z,8.71
2018-03-12T08:21:36.852Z,8.76
2018-03-12T08:22:45.840Z,8.81
2018-03-12T08:23:54.672Z,8.74
2018-03-12T08:25:03.504Z,8.74
2018-03-12T08:26:12.339Z,8.87
2018-03-12T08:27:21.174Z,8.86
2018-03-12T08:28:30.106Z,8.96
2018-03-12T08:29:38.940Z,8.95
2018-03-12T08:30:48.051Z,8.91
2018-03-12T08:31:57.163Z,8.96
2018-03-12T08:33:05.998Z,9.08
2018-03-12T08:34:14.883Z,9.11
2018-03-12T08:35:23.718Z,9.08
2018-03-12T08:36:32.553Z,9.15
2018-03-12T08:37:41.388Z,9.23
2018-03-12T08:38:50.221Z,9.24
2018-03-12T08:39:59.383Z,9.24
2018-03-12T08:41:08.217Z,9.36
2018-03-12T08:42:17.331Z,9.24
2018-03-12T08:43:26.166Z,9.32
2018-03-12T08:44:35.001Z,9.35
2018-03-12T08:45:43.852Z,9.36
2018-03-12T08:46:52.668Z,9.36
2018-03-12T08:48:01.504Z,9.48
2018-03-12T08:49:10.361Z,9.39
2018-03-12T08:50:19.174Z,9.51
2018-03-12T08:51:28.058Z,9.53
2018-03-12T08:52:36.896Z,9.53
2018-03-12T08:53:45.730Z,9.54
2018-03-12T08:54:54.568Z,9.48
2018-03-12T08:56:03.404Z,9.54
2018-03-12T08:57:12.290Z,9.69
2018-03-12T08:58:21.123Z,9.66
2018-03-12T08:59:29.958Z,9.65
2018-03-12T09:00:38.794Z,9.64
2018-03-12T09:01:47.906Z,9.64
2018-03-12T09:02:56.742Z,9.72
2018-03-12T09:04:05.577Z,9.75
2018-03-12T09:05:14.408Z,9.79
2018-03-12T09:06:23.243Z,9.76
2018-03-12T09:07:32.083Z,9.78
2018-03-12T09:08:41.218Z,9.76
2018-03-12T09:09:50.054Z,9.83
2018-03-12T09:10:58.886Z,9.81
2018-03-12T09:12:07.721Z,9.91
2018-03-12T09:13:16.561Z,9.9
2018-03-12T09:14:25.449Z,9.96
2018-03-12T09:15:34.284Z,9.94
2018-03-12T09:16:43.400Z,9.99
2018-03-12T09:17:52.234Z,10.09
2018-03-12T09:19:01.070Z,10.11
2018-03-12T09:20:10.210Z,10.08
2018-03-12T09:21:19.043Z,10.15
2018-03-12T09:22:27.879Z,10.17
2018-03-12T09:23:36.714Z,10.26
2018-03-12T09:24:45.556Z,10.23
2018-03-12T09:25:54.686Z,10.23
2018-03-12T09:27:03.521Z,10.25
2018-03-12T09:28:12.356Z,10.23
2018-03-12T09:29:21.467Z,10.23
2018-03-12T09:30:30.310Z,10.23
2018-03-12T09:31:39.819Z,10.32
2018-03-12T09:32:48.939Z,10.4
2018-03-12T09:33:57.775Z,10.36
2018-03-12T09:35:06.611Z,10.4
2018-03-12T09:36:15.446Z,10.44
2018-03-12T09:37:24.432Z,10.51
2018-03-12T09:38:33.266Z,10.41
2018-03-12T09:39:42.100Z,10.53
2018-03-12T09:40:50.937Z,10.47
2018-03-12T09:41:59.777Z,10.53
2018-03-12T09:43:08.865Z,10.55
2018-03-12T09:44:17.708Z,10.53
2018-03-12T09:45:26.539Z,10.56
2018-03-12T09:46:35.378Z,10.61
2018-03-12T09:47:44.213Z,10.66
2018-03-12T09:48:53.098Z,10.52
2018-03-12T09:50:02.221Z,10.56
2018-03-12T09:51:11.059Z,10.61
2018-03-12T09:52:19.894Z,10.68
2018-03-12T09:53:28.727Z,10.76
2018-03-12T09:54:37.714Z,10.74
2018-03-12T09:55:46.548Z,10.71
2018-03-12T09:56:55.384Z,10.81
2018-03-12T09:58:04.220Z,10.76
2018-03-12T09:59:13.056Z,10.78
2018-03-12T10:00:21.946Z,10.7
2018-03-12T10:01:30.783Z,10.71
2018-03-12T10:02:39.615Z,10.73
2018-03-12T10:03:48.452Z,10.81
2018-03-12T10:04:57.291Z,10.78
2018-03-12T10:06:06.329Z,10.86
2018-03-12T10:07:15.167Z,10.86
2018-03-12T10:08:24.004Z,10.88
2018-03-12T10:09:32.842Z,10.85
2018-03-12T10:10:41.678Z,10.91
2018-03-12T10:11:50.818Z,10.88
2018-03-12T10:12:59.655Z,10.96
2018-03-12T10:14:08.770Z,10.88
2018-03-12T10:15:17.610Z,10.92
2018-03-12T10:16:26.444Z,10.89
2018-03-12T10:17:35.334Z,10.94
2018-03-12T10:18:44.443Z,10.94
2018-03-12T10:19:53.635Z,11.03
2018-03-12T10:21:02.474Z,11.03
2018-03-12T10:22:11.310Z,11.04
2018-03-12T10:23:20.246Z,11.04
2018-03-12T10:24:29.094Z,11.14
2018-03-12T10:25:38.484Z,11.09
2018-03-12T10:26:47.319Z,11.14
2018-03-12T10:27:56.158Z,11.14
2018-03-12T10:29:05.111Z,11.14
2018-03-12T10:30:13.885Z,11.21
2018-03-12T10:31:22.720Z,11.25
2018-03-12T10:32:31.832Z,11.22
2018-03-12T10:33:40.667Z,11.1
2018-03-12T10:34:49.807Z,11.21
2018-03-12T10:35:58.641Z,11.22
2018-03-12T10:37:07.477Z,11.21
2018-03-12T10:38:16.311Z,11.24
2018-03-12T10:39:25.148Z,11.24
2018-03-12T10:40:34.086Z,11.24
2018-03-12T10:41:42.923Z,11.32
2018-03-12T10:42:52.036Z,11.32
2018-03-12T10:44:00.871Z,11.4
2018-03-12T10:45:09.709Z,11.39
2018-03-12T10:46:18.800Z,11.44
2018-03-12T10:47:27.635Z,11.44
2018-03-12T10:48:36.473Z,11.46
2018-03-12T10:49:45.312Z,11.46
2018-03-12T10:50:54.150Z,11.51
2018-03-12T10:52:03.188Z,11.47
2018-03-12T10:53:12.303Z,11.54
2018-03-12T10:54:21.139Z,11.58
2018-03-12T10:55:29.975Z,11.61
2018-03-12T10:56:38.815Z,11.67
2018-03-12T10:57:47.855Z,11.64
2018-03-12T10:58:56.971Z,11.7
2018-03-12T11:00:05.808Z,11.62
2018-03-12T11:01:14.646Z,11.69
2018-03-12T11:02:23.482Z,11.69
2018-03-12T11:04:02.079Z,11.73
2018-03-12T11:05:11.025Z,11.73
2018-03-12T11:06:19.858Z,11.79
2018-03-12T11:07:28.982Z,11.91
2018-03-12T11:08:38.242Z,11.86
2018-03-12T11:09:47.492Z,11.88
2018-03-12T11:10:58.594Z,11.85
2018-03-12T16:20:04.212Z,14.57
2018-03-12T16:21:13.208Z,14.61
2018-03-12T16:22:22.162Z,14.61
2018-03-12T16:23:31.227Z,14.57
2018-03-12T16:24:40.542Z,14.64
2018-03-12T16:25:49.541Z,14.57
2018-03-12T16:26:58.443Z,14.55
2018-03-12T16:28:07.584Z,14.58
2018-03-12T16:29:16.917Z,14.51
2018-03-12T16:30:26.056Z,14.45
2018-03-12T16:31:35.194Z,14.45
2018-03-12T16:32:44.035Z,14.46
2018-03-12T16:33:52.878Z,14.47
2018-03-12T16:35:01.725Z,14.4
2018-03-12T16:36:10.563Z,14.32
2018-03-12T16:37:19.401Z,14.27
2018-03-12T16:38:28.521Z,14.24
2018-03-12T16:39:37.360Z,14.24
2018-03-12T16:40:46.198Z,14.2
2018-03-12T16:41:55.332Z,14.22
2018-03-12T16:43:04.172Z,14.22
2018-03-12T16:44:13.284Z,14.15
2018-03-12T16:45:22.120Z,14.14
2018-03-12T16:46:30.962Z,14.07
2018-03-12T16:47:39.899Z,14.06
2018-03-12T16:48:48.738Z,14.09
2018-03-12T16:49:57.576Z,13.97
2018-03-12T16:51:06.415Z,14.02
2018-03-12T16:52:15.254Z,14.02
2018-03-12T16:53:24.431Z,14.07
2018-03-12T16:54:33.601Z,14.07
2018-03-12T16:55:42.424Z,14.06
2018-03-12T16:56:51.234Z,14.04
2018-03-12T16:58:00.072Z,14.09
2018-03-12T16:59:08.909Z,14.04
2018-03-12T17:00:17.818Z,14
2018-03-12T17:01:26.814Z,14.04
2018-03-12T17:02:35.819Z,14.09
2018-03-12T17:03:44.652Z,14
2018-03-12T17:04:53.712Z,14.07
2018-03-12T17:06:02.597Z,14.04
2018-03-12T17:07:11.491Z,14.04
2018-03-12T17:08:20.331Z,13.96
2018-03-12T17:09:29.168Z,13.96
2018-03-12T17:10:38.053Z,14.03
2018-03-12T17:11:46.893Z,13.99
2018-03-12T17:12:55.730Z,13.88
2018-03-12T17:14:04.566Z,13.87
2018-03-12T17:15:13.404Z,13.88
2018-03-12T17:16:22.295Z,13.84
2018-03-12T17:17:31.258Z,13.78
2018-03-12T17:18:40.282Z,13.79
2018-03-12T17:19:49.621Z,13.73
2018-03-12T17:20:58.769Z,13.82
2018-03-12T17:22:07.920Z,13.75
2018-03-12T17:23:17.023Z,13.73
2018-03-12T17:24:25.891Z,13.7
2018-03-12T17:25:34.785Z,13.77
2018-03-12T17:26:43.984Z,13.71
2018-03-12T17:27:53.250Z,13.64
2018-03-12T17:29:02.395Z,13.6
2018-03-12T17:30:11.528Z,13.54
2018-03-12T17:31:20.387Z,13.52
2018-03-12T17:32:29.431Z,13.48
2018-03-12T17:33:38.320Z,13.52
2018-03-12T17:34:47.157Z,13.55
2018-03-12T17:35:55.993Z,13.6
2018-03-12T17:37:04.831Z,13.52
2018-03-12T17:38:13.880Z,13.46
2018-03-12T17:39:23.473Z,13.49
2018-03-12T17:40:33.069Z,13.36
2018-03-12T17:41:41.927Z,13.32
2018-03-12T17:42:50.765Z,13.33
2018-03-12T17:43:59.604Z,13.38
2018-03-12T17:45:08.590Z,13.32
2018-03-12T17:46:17.423Z,13.3
2018-03-12T17:47:26.259Z,13.28
2018-03-12T17:48:35.097Z,13.28
2018-03-12T17:49:43.941Z,13.29
2018-03-12T17:50:53.201Z,13.32
2018-03-12T17:52:02.040Z,13.29
2018-03-12T17:53:10.878Z,13.17
2018-03-12T17:54:19.719Z,13.2
2018-03-12T17:55:28.555Z,13.07
2018-03-12T17:56:37.439Z,13.04
2018-03-12T17:57:46.276Z,13.1
2018-03-12T17:58:55.115Z,13.05
2018-03-12T18:00:03.950Z,13
2018-03-12T18:01:12.786Z,12.95
2018-03-12T18:02:21.622Z,12.95
2018-03-12T18:03:30.461Z,12.89
2018-03-12T18:04:39.575Z,12.78
2018-03-12T18:05:48.411Z,12.9
2018-03-12T18:06:57.254Z,12.75
2018-03-12T18:08:06.142Z,12.67
2018-03-12T18:09:15.253Z,12.79
2018-03-12T18:10:24.094Z,12.65
2018-03-12T18:11:33.204Z,12.71
2018-03-12T18:12:42.319Z,12.65
2018-03-12T18:13:51.254Z,12.67
2018-03-12T18:15:00.092Z,12.52
2018-03-12T18:16:09.202Z,12.54
2018-03-12T18:17:18.038Z,12.57
2018-03-12T18:18:26.872Z,12.6
2018-03-12T18:19:35.861Z,12.57
2018-03-12T18:20:44.697Z,12.56
2018-03-12T18:21:53.537Z,12.49
2018-03-12T18:23:02.647Z,12.52
2018-03-12T18:24:11.484Z,12.42
2018-03-12T18:25:20.616Z,12.42
2018-03-12T18:26:29.454Z,12.35
2018-03-12T18:27:38.291Z,12.29
2018-03-12T18:28:47.125Z,12.31
2018-03-12T18:29:55.965Z,12.19
2018-03-12T18:31:04.800Z,12.16
2018-03-12T18:32:13.634Z,12.09
2018-03-12T18:33:22.469Z,12.16
2018-03-12T18:34:31.304Z,12.05
2018-03-12T18:35:40.138Z,12.17
2018-03-12T18:36:48.974Z,12.1
2018-03-12T18:37:57.808Z,12.1
2018-03-12T18:39:06.646Z,11.96
2018-03-12T18:40:15.482Z,11.94
2018-03-12T18:41:24.317Z,11.91
2018-03-12T18:42:33.253Z,11.95
2018-03-12T18:43:42.090Z,11.86
2018-03-12T18:44:50.926Z,11.82
2018-03-12T18:45:59.784Z,11.76
2018-03-12T18:47:08.649Z,11.73
2018-03-12T18:48:17.484Z,11.82
2018-03-12T18:49:26.869Z,11.73
2018-03-12T18:50:35.707Z,11.67
2018-03-12T18:51:44.542Z,11.7
2018-03-12T18:52:53.380Z,11.58
2018-03-12T18:54:02.267Z,11.67
2018-03-12T18:55:11.376Z,11.54
2018-03-12T18:56:20.210Z,11.51
2018-03-12T18:57:29.046Z,11.55
2018-03-12T18:58:38.434Z,11.54
2018-03-12T18:59:47.319Z,11.57
2018-03-12T19:00:56.154Z,11.47
2018-03-12T19:02:04.991Z,11.51
2018-03-12T19:03:13.827Z,11.47
2018-03-12T19:04:22.658Z,11.44
2018-03-12T19:05:31.551Z,11.43
2018-03-12T19:06:40.388Z,11.44
2018-03-12T19:07:49.222Z,11.49
2018-03-12T19:08:58.059Z,11.43
2018-03-12T19:10:06.894Z,11.58
2018-03-12T19:11:15.733Z,11.54
2018-03-12T19:12:24.568Z,11.49
2018-03-12T19:13:33.403Z,11.61
2018-03-12T19:14:42.240Z,11.7
2018-03-12T19:15:51.072Z,11.69
2018-03-12T19:16:59.908Z,11.65
2018-03-12T19:18:09.018Z,11.65
2018-03-12T19:19:17.852Z,11.67
2018-03-12T19:20:26.687Z,11.67
2018-03-12T19:21:35.523Z,11.78
2018-03-12T19:22:44.512Z,11.64
2018-03-12T19:23:53.347Z,11.62
2018-03-12T19:25:02.183Z,11.52
2018-03-12T19:26:11.020Z,11.32
2018-03-12T19:27:19.850Z,11.25
2018-03-12T19:28:28.986Z,10.86
2018-03-12T19:29:37.821Z,10.91
2018-03-12T19:30:46.934Z,10.84
2018-03-12T19:31:55.774Z,10.76
2018-03-12T19:33:04.882Z,10.73
2018-03-12T19:34:13.993Z,10.73
2018-03-12T19:35:22.827Z,10.7
2018-03-12T19:36:31.660Z,10.76
2018-03-12T19:37:40.492Z,10.78
2018-03-12T19:38:49.325Z,10.74
2018-03-12T19:39:58.158Z,10.79
2018-03-12T19:41:06.996Z,10.84
2018-03-12T19:42:15.823Z,10.85
2018-03-12T19:43:24.659Z,10.92
2018-03-12T19:44:33.490Z,10.85
2018-03-12T19:45:42.594Z,10.97
2018-03-12T19:46:51.713Z,10.86
2018-03-12T19:48:00.550Z,10.92
2018-03-12T19:49:09.385Z,10.89
2018-03-12T19:50:18.216Z,10.79
2018-03-12T19:51:27.152Z,10.76
2018-03-12T19:52:35.986Z,10.81
2018-03-12T19:53:44.821Z,10.73
2018-03-12T19:54:53.655Z,10.7
2018-03-12T19:56:02.487Z,10.7
2018-03-12T19:57:11.371Z,10.76
2018-03-12T19:58:20.204Z,10.82
2018-03-12T19:59:29.036Z,10.85
2018-03-12T20:00:37.870Z,10.85
2018-03-12T20:01:46.705Z,10.86
2018-03-12T20:02:55.647Z,10.94
2018-03-12T20:04:04.765Z,10.85
2018-03-12T20:05:13.614Z,10.91
2018-03-12T20:06:22.728Z,10.88
2018-03-12T20:07:31.563Z,10.89
2018-03-12T20:08:40.723Z,10.91
2018-03-12T20:09:49.758Z,10.88
2018-03-12T20:10:58.594Z,10.84
2018-03-12T20:12:07.442Z,10.91
2018-03-12T20:13:16.270Z,10.82
2018-03-12T20:14:25.190Z,10.94
2018-03-12T20:15:34.329Z,10.76
2018-03-12T20:16:43.462Z,10.86
2018-03-12T20:17:52.297Z,10.79